Spencer, Tennessee
Current Conditions -  °F | °C
As of 4:55 PM on Tuesday 27 Jan 2015 (Local Time) from KSRB Reporting Station
Overcast Overcast  
Wind Chill: 31°   Ceiling: 2100
Heat Index: 36°   Visibility: 10mi
Dew Point: 30°   Wind: 6mph
Humidity: 81%   Direction: 340°NNW
Pressure: 30.1"   Gusts: NA
Location:  35.75°N, 85.47°W
Report Text: KSRB 272255Z AUTO 34005KT 10SM OVC021 02/M01 A3010 RMK
Loading
Personal Weather Stations






























Interactive Weather Map New forecast layout! Learn more

10-Day Weather Forecast

Advertisements
Track Severe Weather on mobile